Romoe Maersk — OXLC2 — position and weather

sailwx.info

Track history (hours):
 
Tides and Currents Weather Stations Pressure Air Temp Water Temp Dewpoint Dewpoint Depression Visibility Wind Speed Wind Dir Waves Ship Positions

Romoe Maersk

Last reported at 2014-Oct-21 09:33 UTC. Time now 2014-Oct-22 23:06 UTC.
Position N 35°59' W 005°16'.

Length 171 m; draft 11.3 m.

Type: Ship. MMSI: 220209000.

Date/timePositionNaut miles runAvg speedWind from/ knotsBaromVisibWave heightAir tempDewpointWater temp
2014-Oct-21 09:33N 35°59' W 005°16'14210.9
2014-Oct-20 20:33N 36°14' W 008°12'4511.2
2014-Oct-20 16:32N 36°26' W 009°05'1211.3
2014-Oct-20 15:27N 36°30' W 009°20'5110.5
2014-Oct-20 10:33N 37°17' W 009°46'1110.9
2014-Oct-20 09:33N 37°27' W 009°50'1111.4
2014-Oct-20 08:33N 37°38' W 009°53'1111.2
2014-Oct-20 07:33N 37°49' W 009°56'1111.2
2014-Oct-20 06:33N 38°00' W 009°59'1211.3
2014-Oct-20 05:32N 38°11' W 010°03'2211.2
2014-Oct-20 03:32N 38°33' W 010°09'1211.2
2014-Oct-20 02:29N 38°45' W 010°11'  
2014-Oct-16 15:29N 49°43' W 003°37'910.0
2014-Oct-16 14:33N 49°48' W 003°25'10 9.8
2014-Oct-16 13:33N 49°52' W 003°12'12 9.3
2014-Oct-16 12:13N 49°59' W 002°55'6 9.4
2014-Oct-16 11:33N 50°01' W 002°46'10 9.5
2014-Oct-16 10:28N 50°04' W 002°30'10 9.9
2014-Oct-16 09:29N 50°06' W 002°16'5811.6
2014-Oct-16 04:28N 50°22' W 000°49'4010.0
2014-Oct-16 00:29N 50°33' E 000°12'9 9.9
2014-Oct-15 23:33N 50°36' E 000°26'1010.4
2014-Oct-15 22:33N 50°40' E 000°41'1111.2
2014-Oct-15 21:32N 50°47' E 000°55'1411.3
2014-Oct-15 20:18N 50°56' E 001°12'810.9
2014-Oct-15 19:33N 51°01' E 001°22'1010.1
2014-Oct-15 18:33N 51°08' E 001°34'9 9.3
2014-Oct-15 17:33N 51°14' E 001°46'10 9.7
2014-Oct-15 16:34N 51°21' E 001°55'9 8.3
2014-Oct-15 15:29N 51°22' E 002°10'910.3
2014-Oct-15 14:33N 51°22' E 002°25'1312.6
2014-Oct-15 13:33N 51°22' E 002°45'1111.2
2014-Oct-15 12:32N 51°24' E 003°03'1313.7
2014-Oct-15 11:33N 51°25' E 003°24'1111.2
2014-Oct-15 10:34N 51°25' E 003°42'1010.0
2014-Oct-15 09:34N 51°25' E 003°58'9 9.3
2014-Oct-15 08:33N 51°24' E 004°13'4 3.9
2014-Oct-15 07:33N 51°21' E 004°17'0 0.1
2014-Oct-15 06:33N 51°21' E 004°17'4 3.6
2014-Oct-15 05:33N 51°18' E 004°20'2 1.5
2014-Oct-15 04:29N 51°16' E 004°21'0 0.0
2014-Oct-15 03:29N 51°16' E 004°21'0 0.0
2014-Oct-15 02:32N 51°16' E 004°21'0 0.0
2014-Oct-15 01:29N 51°16' E 004°21'0 0.0
2014-Oct-15 00:26N 51°16' E 004°21'0 0.0
2014-Oct-14 23:11N 51°16' E 004°21'0 0.0
2014-Oct-14 22:29N 51°16' E 004°21'0 0.0
2014-Oct-14 21:32N 51°16' E 004°21'0 0.0
2014-Oct-14 20:32N 51°16' E 004°21'0 0.0
2014-Oct-14 19:32N 51°16' E 004°21'0 0.0
2014-Oct-14 18:32N 51°16' E 004°21'0 0.0
2014-Oct-14 17:32N 51°16' E 004°21'0 0.0
2014-Oct-14 16:32N 51°16' E 004°21'0 0.0
2014-Oct-14 15:32N 51°16' E 004°21'0 0.0
2014-Oct-14 14:26N 51°16' E 004°21'0 0.0
2014-Oct-14 13:29N 51°16' E 004°21'0 0.0
2014-Oct-14 12:32N 51°16' E 004°21'0 0.0
2014-Oct-14 11:29N 51°16' E 004°21'0 0.0
2014-Oct-14 10:32N 51°16' E 004°21'0 0.0
2014-Oct-14 09:29N 51°16' E 004°21'0 0.0
2014-Oct-14 08:32N 51°16' E 004°21'0 0.0
2014-Oct-14 07:32N 51°16' E 004°21'0 0.0
2014-Oct-14 06:32N 51°16' E 004°21'0 0.0
2014-Oct-14 05:32N 51°16' E 004°21'0 0.0
2014-Oct-14 04:32N 51°16' E 004°21'0 0.0
2014-Oct-14 03:32N 51°16' E 004°21'0 0.0
2014-Oct-14 02:32N 51°16' E 004°21'0 0.0
2014-Oct-14 01:32N 51°16' E 004°21'0 0.0
2014-Oct-14 00:32N 51°16' E 004°21'0 0.0
2014-Oct-13 23:32N 51°16' E 004°21'0 0.0
2014-Oct-13 22:32N 51°16' E 004°21'0 0.0
2014-Oct-13 21:29N 51°16' E 004°21'0 0.0
2014-Oct-13 20:32N 51°16' E 004°21'0 0.0
2014-Oct-13 19:32N 51°16' E 004°21'0 0.0
2014-Oct-13 18:32N 51°16' E 004°21'0 0.0
2014-Oct-13 17:29N 51°16' E 004°21'0 0.0
2014-Oct-13 16:32N 51°16' E 004°21'0 0.0
2014-Oct-13 15:29N 51°16' E 004°21'0 0.0
2014-Oct-13 14:32N 51°16' E 004°21'0 0.0
2014-Oct-13 13:31N 51°16' E 004°21'0 0.0
2014-Oct-13 12:31N 51°16' E 004°21'0 0.0
2014-Oct-13 11:31N 51°16' E 004°21'0 0.0
2014-Oct-13 10:31N 51°16' E 004°21'0 0.0
2014-Oct-13 09:31N 51°16' E 004°21'0 0.0
2014-Oct-13 08:31N 51°16' E 004°21'0 0.0
2014-Oct-13 07:28N 51°16' E 004°21'0 0.0
2014-Oct-13 06:31N 51°16' E 004°21'0 0.0
2014-Oct-13 05:31N 51°16' E 004°21'0 0.0
2014-Oct-13 04:31N 51°16' E 004°21'0 0.0
2014-Oct-13 03:31N 51°16' E 004°21'0 0.0
2014-Oct-13 02:31N 51°16' E 004°21'0 0.0
2014-Oct-13 01:31N 51°16' E 004°21'0 0.0
2014-Oct-13 00:31N 51°16' E 004°21'0 0.0
2014-Oct-12 23:31N 51°16' E 004°21'0 0.0
2014-Oct-12 22:31N 51°16' E 004°21'0 0.0
2014-Oct-12 21:31N 51°16' E 004°21'0 0.0
2014-Oct-12 20:31N 51°16' E 004°21'0 0.0
2014-Oct-12 19:31N 51°16' E 004°21'0 0.0
2014-Oct-12 18:31N 51°16' E 004°21'0 0.0
2014-Oct-12 17:31N 51°16' E 004°21'0 0.0
2014-Oct-12 16:31N 51°16' E 004°21'0 0.0
2014-Oct-12 15:31N 51°16' E 004°21'0 0.0
2014-Oct-12 14:31N 51°16' E 004°21'0 0.0
2014-Oct-12 13:33N 51°16' E 004°21'1 1.3
2014-Oct-12 12:33N 51°17' E 004°20'4 3.8
2014-Oct-12 11:33N 51°21' E 004°17'0 0.1
2014-Oct-12 10:33N 51°21' E 004°17'6 6.4
2014-Oct-12 09:33N 51°22' E 004°07'7 6.7
2014-Oct-12 08:33N 51°23' E 003°56'9 8.8
2014-Oct-12 07:33N 51°24' E 003°42'10 9.6
2014-Oct-12 06:33N 51°29' E 003°29'1312.8
2014-Oct-12 05:32N 51°41' E 003°18'9 8.8
2014-Oct-12 04:33N 51°49' E 003°16'1110.8
2014-Oct-12 03:33N 51°59' E 003°21'10 9.6
2014-Oct-12 02:30N 52°03' E 003°36'1010.5
2014-Oct-12 01:33N 52°02' E 003°52'1111.1
2014-Oct-12 00:34N 51°57' E 004°09'3 3.3
2014-Oct-11 23:33N 51°55' E 004°12'0 0.0
2014-Oct-11 22:33N 51°55' E 004°12'0 0.0
2014-Oct-11 21:30N 51°55' E 004°12'0 0.0
2014-Oct-11 20:33N 51°55' E 004°12'0 0.0
2014-Oct-11 19:33N 51°55' E 004°12'0 0.0
2014-Oct-11 18:33N 51°55' E 004°12'0 0.0
2014-Oct-11 17:33N 51°55' E 004°12'0 0.0
2014-Oct-11 16:30N 51°55' E 004°12'0 0.0
2014-Oct-11 15:33N 51°55' E 004°12'0 0.0
2014-Oct-11 14:33N 51°55' E 004°12'0 0.0
2014-Oct-11 13:30N 51°55' E 004°12'0 0.0
2014-Oct-11 12:33N 51°55' E 004°12'0 0.0
2014-Oct-11 11:33N 51°55' E 004°12'0 0.0
2014-Oct-11 10:33N 51°55' E 004°12'  
Track history (hours):
 
Tides and Currents Weather Stations Pressure Air Temp Water Temp Dewpoint Dewpoint Depression Visibility Wind Speed Wind Dir Waves Ship Positions

Romoe Maersk

Last reported at 2014-Oct-21 09:33 UTC. Time now 2014-Oct-22 23:06 UTC.
Position N 35°59' W 005°16'.

Length 171 m; draft 11.3 m.

Type: Ship. MMSI: 220209000.

Date/timePositionNaut miles runAvg speedWind from/ knotsBaromVisibWave heightAir tempDewpointWater temp
2014-Oct-21 09:33N 35°59' W 005°16'14210.9
2014-Oct-20 20:33N 36°14' W 008°12'4511.2
2014-Oct-20 16:32N 36°26' W 009°05'1211.3
2014-Oct-20 15:27N 36°30' W 009°20'5110.5
2014-Oct-20 10:33N 37°17' W 009°46'1110.9
2014-Oct-20 09:33N 37°27' W 009°50'1111.4
2014-Oct-20 08:33N 37°38' W 009°53'1111.2
2014-Oct-20 07:33N 37°49' W 009°56'1111.2
2014-Oct-20 06:33N 38°00' W 009°59'1211.3
2014-Oct-20 05:32N 38°11' W 010°03'2211.2
2014-Oct-20 03:32N 38°33' W 010°09'1211.2
2014-Oct-20 02:29N 38°45' W 010°11'  
2014-Oct-16 15:29N 49°43' W 003°37'910.0
2014-Oct-16 14:33N 49°48' W 003°25'10 9.8
2014-Oct-16 13:33N 49°52' W 003°12'12 9.3
2014-Oct-16 12:13N 49°59' W 002°55'6 9.4
2014-Oct-16 11:33N 50°01' W 002°46'10 9.5
2014-Oct-16 10:28N 50°04' W 002°30'10 9.9
2014-Oct-16 09:29N 50°06' W 002°16'5811.6
2014-Oct-16 04:28N 50°22' W 000°49'4010.0
2014-Oct-16 00:29N 50°33' E 000°12'9 9.9
2014-Oct-15 23:33N 50°36' E 000°26'1010.4
2014-Oct-15 22:33N 50°40' E 000°41'1111.2
2014-Oct-15 21:32N 50°47' E 000°55'1411.3
2014-Oct-15 20:18N 50°56' E 001°12'810.9
2014-Oct-15 19:33N 51°01' E 001°22'1010.1
2014-Oct-15 18:33N 51°08' E 001°34'9 9.3
2014-Oct-15 17:33N 51°14' E 001°46'10 9.7
2014-Oct-15 16:34N 51°21' E 001°55'9 8.3
2014-Oct-15 15:29N 51°22' E 002°10'910.3
2014-Oct-15 14:33N 51°22' E 002°25'1312.6
2014-Oct-15 13:33N 51°22' E 002°45'1111.2
2014-Oct-15 12:32N 51°24' E 003°03'1313.7
2014-Oct-15 11:33N 51°25' E 003°24'1111.2
2014-Oct-15 10:34N 51°25' E 003°42'1010.0
2014-Oct-15 09:34N 51°25' E 003°58'9 9.3
2014-Oct-15 08:33N 51°24' E 004°13'4 3.9
2014-Oct-15 07:33N 51°21' E 004°17'0 0.1
2014-Oct-15 06:33N 51°21' E 004°17'4 3.6
2014-Oct-15 05:33N 51°18' E 004°20'2 1.5
2014-Oct-15 04:29N 51°16' E 004°21'0 0.0
2014-Oct-15 03:29N 51°16' E 004°21'0 0.0
2014-Oct-15 02:32N 51°16' E 004°21'0 0.0
2014-Oct-15 01:29N 51°16' E 004°21'0 0.0
2014-Oct-15 00:26N 51°16' E 004°21'0 0.0
2014-Oct-14 23:11N 51°16' E 004°21'0 0.0
2014-Oct-14 22:29N 51°16' E 004°21'0 0.0
2014-Oct-14 21:32N 51°16' E 004°21'0 0.0
2014-Oct-14 20:32N 51°16' E 004°21'0 0.0
2014-Oct-14 19:32N 51°16' E 004°21'0 0.0
2014-Oct-14 18:32N 51°16' E 004°21'0 0.0
2014-Oct-14 17:32N 51°16' E 004°21'0 0.0
2014-Oct-14 16:32N 51°16' E 004°21'0 0.0
2014-Oct-14 15:32N 51°16' E 004°21'0 0.0
2014-Oct-14 14:26N 51°16' E 004°21'0 0.0
2014-Oct-14 13:29N 51°16' E 004°21'0 0.0
2014-Oct-14 12:32N 51°16' E 004°21'0 0.0
2014-Oct-14 11:29N 51°16' E 004°21'0 0.0
2014-Oct-14 10:32N 51°16' E 004°21'0 0.0
2014-Oct-14 09:29N 51°16' E 004°21'0 0.0
2014-Oct-14 08:32N 51°16' E 004°21'0 0.0
2014-Oct-14 07:32N 51°16' E 004°21'0 0.0
2014-Oct-14 06:32N 51°16' E 004°21'0 0.0
2014-Oct-14 05:32N 51°16' E 004°21'0 0.0
2014-Oct-14 04:32N 51°16' E 004°21'0 0.0
2014-Oct-14 03:32N 51°16' E 004°21'0 0.0
2014-Oct-14 02:32N 51°16' E 004°21'0 0.0
2014-Oct-14 01:32N 51°16' E 004°21'0 0.0
2014-Oct-14 00:32N 51°16' E 004°21'0 0.0
2014-Oct-13 23:32N 51°16' E 004°21'0 0.0
2014-Oct-13 22:32N 51°16' E 004°21'0 0.0
2014-Oct-13 21:29N 51°16' E 004°21'0 0.0
2014-Oct-13 20:32N 51°16' E 004°21'0 0.0
2014-Oct-13 19:32N 51°16' E 004°21'0 0.0
2014-Oct-13 18:32N 51°16' E 004°21'0 0.0
2014-Oct-13 17:29N 51°16' E 004°21'0 0.0
2014-Oct-13 16:32N 51°16' E 004°21'0 0.0
2014-Oct-13 15:29N 51°16' E 004°21'0 0.0
2014-Oct-13 14:32N 51°16' E 004°21'0 0.0
2014-Oct-13 13:31N 51°16' E 004°21'0 0.0
2014-Oct-13 12:31N 51°16' E 004°21'0 0.0
2014-Oct-13 11:31N 51°16' E 004°21'0 0.0
2014-Oct-13 10:31N 51°16' E 004°21'0 0.0
2014-Oct-13 09:31N 51°16' E 004°21'0 0.0
2014-Oct-13 08:31N 51°16' E 004°21'0 0.0
2014-Oct-13 07:28N 51°16' E 004°21'0 0.0
2014-Oct-13 06:31N 51°16' E 004°21'0 0.0
2014-Oct-13 05:31N 51°16' E 004°21'0 0.0
2014-Oct-13 04:31N 51°16' E 004°21'0 0.0
2014-Oct-13 03:31N 51°16' E 004°21'0 0.0
2014-Oct-13 02:31N 51°16' E 004°21'0 0.0
2014-Oct-13 01:31N 51°16' E 004°21'0 0.0
2014-Oct-13 00:31N 51°16' E 004°21'0 0.0
2014-Oct-12 23:31N 51°16' E 004°21'0 0.0
2014-Oct-12 22:31N 51°16' E 004°21'0 0.0
2014-Oct-12 21:31N 51°16' E 004°21'0 0.0
2014-Oct-12 20:31N 51°16' E 004°21'0 0.0
2014-Oct-12 19:31N 51°16' E 004°21'0 0.0
2014-Oct-12 18:31N 51°16' E 004°21'0 0.0
2014-Oct-12 17:31N 51°16' E 004°21'0 0.0
2014-Oct-12 16:31N 51°16' E 004°21'0 0.0
2014-Oct-12 15:31N 51°16' E 004°21'0 0.0
2014-Oct-12 14:31N 51°16' E 004°21'0 0.0
2014-Oct-12 13:33N 51°16' E 004°21'1 1.3
2014-Oct-12 12:33N 51°17' E 004°20'4 3.8
2014-Oct-12 11:33N 51°21' E 004°17'0 0.1
2014-Oct-12 10:33N 51°21' E 004°17'6 6.4
2014-Oct-12 09:33N 51°22' E 004°07'7 6.7
2014-Oct-12 08:33N 51°23' E 003°56'9 8.8
2014-Oct-12 07:33N 51°24' E 003°42'10 9.6
2014-Oct-12 06:33N 51°29' E 003°29'1312.8
2014-Oct-12 05:32N 51°41' E 003°18'9 8.8
2014-Oct-12 04:33N 51°49' E 003°16'1110.8
2014-Oct-12 03:33N 51°59' E 003°21'10 9.6
2014-Oct-12 02:30N 52°03' E 003°36'1010.5
2014-Oct-12 01:33N 52°02' E 003°52'1111.1
2014-Oct-12 00:34N 51°57' E 004°09'3 3.3
2014-Oct-11 23:33N 51°55' E 004°12'0 0.0
2014-Oct-11 22:33N 51°55' E 004°12'0 0.0
2014-Oct-11 21:30N 51°55' E 004°12'0 0.0
2014-Oct-11 20:33N 51°55' E 004°12'0 0.0
2014-Oct-11 19:33N 51°55' E 004°12'0 0.0
2014-Oct-11 18:33N 51°55' E 004°12'0 0.0
2014-Oct-11 17:33N 51°55' E 004°12'0 0.0
2014-Oct-11 16:30N 51°55' E 004°12'0 0.0
2014-Oct-11 15:33N 51°55' E 004°12'0 0.0
2014-Oct-11 14:33N 51°55' E 004°12'0 0.0
2014-Oct-11 13:30N 51°55' E 004°12'0 0.0
2014-Oct-11 12:33N 51°55' E 004°12'0 0.0
2014-Oct-11 11:33N 51°55' E 004°12'0 0.0
2014-Oct-11 10:33N 51°55' E 004°12'  

Dump ship's entire track history